sensor_id;sensor_type;location;lat;lon;timestamp;P1;P2;P0
55304;PMS7003;65692;51.378;19.824;2023-01-01T00:01:35;21.00;15.00;11.50
55304;PMS7003;65692;51.378;19.824;2023-01-01T00:04:06;19.00;18.00;12.75
55304;PMS7003;65692;51.378;19.824;2023-01-01T00:06:34;17.50;16.50;13.00
55304;PMS7003;65692;51.378;19.824;2023-01-01T00:09:01;20.50;17.00;12.75
55304;PMS7003;65692;51.378;19.824;2023-01-01T00:11:47;20.50;17.00;12.75
55304;PMS7003;65692;51.378;19.824;2023-01-01T00:14:13;16.75;15.75;10.50
55304;PMS7003;65692;51.378;19.824;2023-01-01T00:16:40;16.75;13.50;10.50
55304;PMS7003;65692;51.378;19.824;2023-01-01T00:19:07;25.75;19.50;15.00
55304;PMS7003;65692;51.378;19.824;2023-01-01T00:21:33;18.00;15.75;11.00
55304;PMS7003;65692;51.378;19.824;2023-01-01T00:24:00;18.75;14.75;10.00
55304;PMS7003;65692;51.378;19.824;2023-01-01T00:26:27;20.75;18.75;12.75
55304;PMS7003;65692;51.378;19.824;2023-01-01T00:29:00;16.00;15.00;10.50
55304;PMS7003;65692;51.378;19.824;2023-01-01T00:31:27;10.00;9.25;9.25
55304;PMS7003;65692;51.378;19.824;2023-01-01T00:33:54;18.00;15.50;11.75
55304;PMS7003;65692;51.378;19.824;2023-01-01T00:36:21;16.50;15.75;13.00
55304;PMS7003;65692;51.378;19.824;2023-01-01T00:38:48;23.75;17.25;13.75
55304;PMS7003;65692;51.378;19.824;2023-01-01T00:41:15;21.25;18.25;12.50
55304;PMS7003;65692;51.378;19.824;2023-01-01T00:46:24;17.50;14.75;10.00
55304;PMS7003;65692;51.378;19.824;2023-01-01T00:48:52;16.25;14.75;12.75
55304;PMS7003;65692;51.378;19.824;2023-01-01T00:51:18;21.75;17.00;12.00
55304;PMS7003;65692;51.378;19.824;2023-01-01T00:53:45;17.75;17.75;14.25
55304;PMS7003;65692;51.378;19.824;2023-01-01T00:56:12;17.00;15.25;12.00
55304;PMS7003;65692;51.378;19.824;2023-01-01T00:58:38;19.00;19.00;14.00
55304;PMS7003;65692;51.378;19.824;2023-01-01T01:01:05;21.25;18.25;14.25
55304;PMS7003;65692;51.378;19.824;2023-01-01T01:03:32;13.75;13.75;11.00
55304;PMS7003;65692;51.378;19.824;2023-01-01T01:06:06;20.00;17.00;13.00
55304;PMS7003;65692;51.378;19.824;2023-01-01T01:08:36;18.75;15.00;12.25
55304;PMS7003;65692;51.378;19.824;2023-01-01T01:11:07;15.00;13.50;10.00
55304;PMS7003;65692;51.378;19.824;2023-01-01T01:13:34;16.75;14.25;11.00
55304;PMS7003;65692;51.378;19.824;2023-01-01T01:16:06;22.00;15.50;11.00
55304;PMS7003;65692;51.378;19.824;2023-01-01T01:18:33;15.25;13.75;10.00
55304;PMS7003;65692;51.378;19.824;2023-01-01T01:20:59;14.25;14.25;12.25
55304;PMS7003;65692;51.378;19.824;2023-01-01T01:23:26;18.50;13.50;11.75
55304;PMS7003;65692;51.378;19.824;2023-01-01T01:25:53;15.00;14.00;11.00
55304;PMS7003;65692;51.378;19.824;2023-01-01T01:28:19;19.25;14.25;10.50
55304;PMS7003;65692;51.378;19.824;2023-01-01T01:30:46;13.25;9.75;7.50
55304;PMS7003;65692;51.378;19.824;2023-01-01T01:33:12;13.25;13.00;9.00
55304;PMS7003;65692;51.378;19.824;2023-01-01T01:35:39;15.50;11.75;9.50
55304;PMS7003;65692;51.378;19.824;2023-01-01T01:38:05;14.75;11.25;9.75
55304;PMS7003;65692;51.378;19.824;2023-01-01T01:40:32;16.75;12.00;8.75
55304;PMS7003;65692;51.378;19.824;2023-01-01T01:42:58;19.00;14.25;9.75
55304;PMS7003;65692;51.378;19.824;2023-01-01T01:45:25;17.25;14.25;9.75
55304;PMS7003;65692;51.378;19.824;2023-01-01T01:47:58;16.00;13.25;10.00
55304;PMS7003;65692;51.378;19.824;2023-01-01T01:50:32;16.50;14.25;10.50
55304;PMS7003;65692;51.378;19.824;2023-01-01T01:53:16;18.75;13.50;10.00
55304;PMS7003;65692;51.378;19.824;2023-01-01T01:55:49;13.75;12.75;9.75
55304;PMS7003;65692;51.378;19.824;2023-01-01T01:58:16;11.75;11.00;9.00
55304;PMS7003;65692;51.378;19.824;2023-01-01T02:00:43;15.25;14.25;10.00
55304;PMS7003;65692;51.378;19.824;2023-01-01T02:03:12;17.75;14.00;10.25
55304;PMS7003;65692;51.378;19.824;2023-01-01T02:05:40;13.25;12.25;9.25
55304;PMS7003;65692;51.378;19.824;2023-01-01T02:08:07;12.75;11.00;8.25
55304;PMS7003;65692;51.378;19.824;2023-01-01T02:10:34;9.00;8.75;7.00
55304;PMS7003;65692;51.378;19.824;2023-01-01T02:13:00;14.00;10.75;9.25
55304;PMS7003;65692;51.378;19.824;2023-01-01T02:15:28;11.75;10.75;7.25
55304;PMS7003;65692;51.378;19.824;2023-01-01T02:18:05;13.50;11.25;9.25
55304;PMS7003;65692;51.378;19.824;2023-01-01T02:20:48;18.50;12.25;9.00
55304;PMS7003;65692;51.378;19.824;2023-01-01T02:28:35;15.25;10.50;8.75
55304;PMS7003;65692;51.378;19.824;2023-01-01T02:31:03;12.00;9.75;8.75
55304;PMS7003;65692;51.378;19.824;2023-01-01T02:33:29;16.25;11.75;9.25
55304;PMS7003;65692;51.378;19.824;2023-01-01T02:35:57;16.00;12.25;11.00
55304;PMS7003;65692;51.378;19.824;2023-01-01T02:41:01;15.50;12.75;9.75
55304;PMS7003;65692;51.378;19.824;2023-01-01T02:43:29;15.75;11.25;8.50
55304;PMS7003;65692;51.378;19.824;2023-01-01T02:45:55;14.50;12.25;8.75
55304;PMS7003;65692;51.378;19.824;2023-01-01T02:48:36;11.75;11.00;9.25
55304;PMS7003;65692;51.378;19.824;2023-01-01T02:51:09;15.50;12.25;9.50
55304;PMS7003;65692;51.378;19.824;2023-01-01T02:53:36;15.00;13.00;9.50
55304;PMS7003;65692;51.378;19.824;2023-01-01T02:56:11;12.25;10.25;7.50
55304;PMS7003;65692;51.378;19.824;2023-01-01T03:07:24;12.00;10.00;8.00
55304;PMS7003;65692;51.378;19.824;2023-01-01T03:09:55;13.25;11.50;9.00
55304;PMS7003;65692;51.378;19.824;2023-01-01T03:12:31;10.50;9.75;8.00
55304;PMS7003;65692;51.378;19.824;2023-01-01T03:15:08;18.75;13.25;9.00
55304;PMS7003;65692;51.378;19.824;2023-01-01T03:20:16;15.75;11.25;9.25
55304;PMS7003;65692;51.378;19.824;2023-01-01T03:22:44;12.00;10.50;9.25
55304;PMS7003;65692;51.378;19.824;2023-01-01T03:25:15;12.50;11.50;9.50
55304;PMS7003;65692;51.378;19.824;2023-01-01T03:27:43;16.50;12.75;10.00
55304;PMS7003;65692;51.378;19.824;2023-01-01T03:30:12;13.50;11.25;9.75
55304;PMS7003;65692;51.378;19.824;2023-01-01T03:32:43;12.00;11.75;9.00
55304;PMS7003;65692;51.378;19.824;2023-01-01T03:35:35;14.25;9.75;8.75
55304;PMS7003;65692;51.378;19.824;2023-01-01T03:38:04;12.50;11.00;8.00
55304;PMS7003;65692;51.378;19.824;2023-01-01T03:40:33;13.75;12.25;8.75
55304;PMS7003;65692;51.378;19.824;2023-01-01T03:43:05;10.00;10.00;8.00
55304;PMS7003;65692;51.378;19.824;2023-01-01T03:45:38;14.00;10.00;7.25
55304;PMS7003;65692;51.378;19.824;2023-01-01T03:48:06;9.50;9.25;7.25
55304;PMS7003;65692;51.378;19.824;2023-01-01T03:50:42;16.00;11.50;8.25
55304;PMS7003;65692;51.378;19.824;2023-01-01T03:53:55;5.00;3.25;3.25
55304;PMS7003;65692;51.378;19.824;2023-01-01T03:56:00;10.50;9.75;8.25
55304;PMS7003;65692;51.378;19.824;2023-01-01T03:58:32;13.50;9.00;7.25
55304;PMS7003;65692;51.378;19.824;2023-01-01T04:01:12;9.75;8.25;5.50
55304;PMS7003;65692;51.378;19.824;2023-01-01T04:03:40;12.50;10.00;8.00
55304;PMS7003;65692;51.378;19.824;2023-01-01T04:06:08;9.50;9.50;7.75
55304;PMS7003;65692;51.378;19.824;2023-01-01T04:08:36;15.50;11.00;8.00
55304;PMS7003;65692;51.378;19.824;2023-01-01T04:11:05;11.25;8.75;5.75
55304;PMS7003;65692;51.378;19.824;2023-01-01T04:13:52;10.67;7.67;5.67
55304;PMS7003;65692;51.378;19.824;2023-01-01T04:16:19;8.75;8.75;8.00
55304;PMS7003;65692;51.378;19.824;2023-01-01T04:18:46;9.00;7.75;5.75
55304;PMS7003;65692;51.378;19.824;2023-01-01T04:21:12;7.50;6.50;5.75
55304;PMS7003;65692;51.378;19.824;2023-01-01T04:23:39;8.25;7.25;6.00
55304;PMS7003;65692;51.378;19.824;2023-01-01T04:26:09;9.75;9.50;7.50
55304;PMS7003;65692;51.378;19.824;2023-01-01T04:28:37;11.00;7.75;5.50
55304;PMS7003;65692;51.378;19.824;2023-01-01T04:31:03;8.75;8.00;5.50
55304;PMS7003;65692;51.378;19.824;2023-01-01T04:33:30;8.00;7.00;5.00
55304;PMS7003;65692;51.378;19.824;2023-01-01T04:36:08;9.00;9.00;7.00
55304;PMS7003;65692;51.378;19.824;2023-01-01T04:38:35;3.00;3.00;3.00
55304;PMS7003;65692;51.378;19.824;2023-01-01T04:41:02;11.00;9.25;6.00
55304;PMS7003;65692;51.378;19.824;2023-01-01T04:43:29;11.00;8.00;5.50
55304;PMS7003;65692;51.378;19.824;2023-01-01T04:45:56;12.25;8.75;6.25
55304;PMS7003;65692;51.378;19.824;2023-01-01T04:48:23;7.75;7.00;4.00
55304;PMS7003;65692;51.378;19.824;2023-01-01T04:51:09;11.00;9.50;7.00
55304;PMS7003;65692;51.378;19.824;2023-01-01T04:53:36;5.75;4.25;4.25
55304;PMS7003;65692;51.378;19.824;2023-01-01T04:56:06;8.00;5.50;4.25
55304;PMS7003;65692;51.378;19.824;2023-01-01T04:58:33;7.00;5.00;4.00
55304;PMS7003;65692;51.378;19.824;2023-01-01T05:01:00;10.25;8.00;5.50
55304;PMS7003;65692;51.378;19.824;2023-01-01T05:03:27;6.25;5.75;4.25
55304;PMS7003;65692;51.378;19.824;2023-01-01T05:08:30;7.75;4.00;3.00
55304;PMS7003;65692;51.378;19.824;2023-01-01T05:11:08;8.00;5.25;4.25
55304;PMS7003;65692;51.378;19.824;2023-01-01T05:13:39;10.00;9.00;7.00
55304;PMS7003;65692;51.378;19.824;2023-01-01T05:16:07;7.25;5.25;4.25
55304;PMS7003;65692;51.378;19.824;2023-01-01T05:18:34;8.75;8.75;8.00
55304;PMS7003;65692;51.378;19.824;2023-01-01T05:21:09;12.00;6.75;5.00
55304;PMS7003;65692;51.378;19.824;2023-01-01T05:23:36;6.75;6.75;5.00
55304;PMS7003;65692;51.378;19.824;2023-01-01T05:26:16;6.25;6.25;4.75
55304;PMS7003;65692;51.378;19.824;2023-01-01T05:28:42;6.25;6.00;4.00
55304;PMS7003;65692;51.378;19.824;2023-01-01T05:31:10;7.50;7.00;5.25
55304;PMS7003;65692;51.378;19.824;2023-01-01T05:33:38;5.75;5.00;4.00
55304;PMS7003;65692;51.378;19.824;2023-01-01T05:36:05;7.25;6.50;5.00
55304;PMS7003;65692;51.378;19.824;2023-01-01T05:38:32;11.00;8.50;6.25
55304;PMS7003;65692;51.378;19.824;2023-01-01T05:40:59;7.50;5.25;5.00
55304;PMS7003;65692;51.378;19.824;2023-01-01T05:43:25;5.00;5.00;4.25
55304;PMS7003;65692;51.378;19.824;2023-01-01T05:45:58;8.00;8.00;5.25
55304;PMS7003;65692;51.378;19.824;2023-01-01T05:48:25;7.25;6.50;5.25
55304;PMS7003;65692;51.378;19.824;2023-01-01T05:50:52;9.00;7.00;4.25
55304;PMS7003;65692;51.378;19.824;2023-01-01T05:53:19;9.25;6.00;5.00
55304;PMS7003;65692;51.378;19.824;2023-01-01T05:55:50;12.25;8.00;6.75
55304;PMS7003;65692;51.378;19.824;2023-01-01T05:58:17;5.75;5.50;4.00
55304;PMS7003;65692;51.378;19.824;2023-01-01T06:00:43;9.33;7.00;6.33
55304;PMS7003;65692;51.378;19.824;2023-01-01T06:03:10;6.75;5.50;4.00
55304;PMS7003;65692;51.378;19.824;2023-01-01T06:05:36;9.00;8.00;5.00
55304;PMS7003;65692;51.378;19.824;2023-01-01T06:08:03;4.00;4.00;4.00
55304;PMS7003;65692;51.378;19.824;2023-01-01T06:10:29;7.00;7.00;5.75
55304;PMS7003;65692;51.378;19.824;2023-01-01T06:12:55;11.75;6.50;5.00
55304;PMS7003;65692;51.378;19.824;2023-01-01T06:15:24;7.50;7.50;5.00
55304;PMS7003;65692;51.378;19.824;2023-01-01T06:17:51;7.00;5.75;3.75
55304;PMS7003;65692;51.378;19.824;2023-01-01T06:20:17;7.50;7.25;6.25
55304;PMS7003;65692;51.378;19.824;2023-01-01T06:22:44;6.25;4.00;3.00
55304;PMS7003;65692;51.378;19.824;2023-01-01T06:25:10;7.25;4.75;3.25
55304;PMS7003;65692;51.378;19.824;2023-01-01T06:27:37;7.75;5.25;4.50
55304;PMS7003;65692;51.378;19.824;2023-01-01T06:30:04;7.00;7.00;5.00
55304;PMS7003;65692;51.378;19.824;2023-01-01T06:32:31;6.00;6.00;5.00
55304;PMS7003;65692;51.378;19.824;2023-01-01T06:34:58;5.00;4.25;4.00
55304;PMS7003;65692;51.378;19.824;2023-01-01T06:37:26;4.75;4.75;4.00
55304;PMS7003;65692;51.378;19.824;2023-01-01T06:39:52;5.25;3.75;2.00
55304;PMS7003;65692;51.378;19.824;2023-01-01T06:42:19;8.00;7.00;6.50
55304;PMS7003;65692;51.378;19.824;2023-01-01T06:44:45;8.75;5.00;5.00
55304;PMS7003;65692;51.378;19.824;2023-01-01T06:47:12;5.50;5.50;4.75
55304;PMS7003;65692;51.378;19.824;2023-01-01T06:49:38;9.00;5.00;4.25
55304;PMS7003;65692;51.378;19.824;2023-01-01T06:52:04;8.00;6.25;5.00
55304;PMS7003;65692;51.378;19.824;2023-01-01T06:54:31;7.25;5.00;4.25
55304;PMS7003;65692;51.378;19.824;2023-01-01T06:56:58;5.50;5.50;4.00
55304;PMS7003;65692;51.378;19.824;2023-01-01T06:59:24;7.50;5.00;4.00
55304;PMS7003;65692;51.378;19.824;2023-01-01T07:01:51;8.00;8.00;6.50
55304;PMS7003;65692;51.378;19.824;2023-01-01T07:04:18;8.00;8.00;6.50
55304;PMS7003;65692;51.378;19.824;2023-01-01T07:06:44;7.00;6.00;4.25
55304;PMS7003;65692;51.378;19.824;2023-01-01T07:09:11;6.50;4.75;4.00
55304;PMS7003;65692;51.378;19.824;2023-01-01T07:11:37;7.00;7.00;5.00
55304;PMS7003;65692;51.378;19.824;2023-01-01T07:14:04;6.75;6.00;4.75
55304;PMS7003;65692;51.378;19.824;2023-01-01T07:16:30;7.00;7.00;5.75
55304;PMS7003;65692;51.378;19.824;2023-01-01T07:18:57;8.25;5.00;4.25
55304;PMS7003;65692;51.378;19.824;2023-01-01T07:21:25;4.00;4.00;2.75
55304;PMS7003;65692;51.378;19.824;2023-01-01T07:23:55;6.50;5.00;3.50
55304;PMS7003;65692;51.378;19.824;2023-01-01T07:26:22;6.00;5.25;5.00
55304;PMS7003;65692;51.378;19.824;2023-01-01T07:28:49;7.50;6.25;4.75
55304;PMS7003;65692;51.378;19.824;2023-01-01T07:31:16;8.75;8.00;5.00
55304;PMS7003;65692;51.378;19.824;2023-01-01T07:33:42;7.50;7.50;5.50
55304;PMS7003;65692;51.378;19.824;2023-01-01T07:36:09;3.00;2.00;1.00
55304;PMS7003;65692;51.378;19.824;2023-01-01T07:38:35;11.75;8.00;7.00
55304;PMS7003;65692;51.378;19.824;2023-01-01T07:41:02;10.25;8.25;6.75
55304;PMS7003;65692;51.378;19.824;2023-01-01T07:43:28;3.50;3.50;2.25
55304;PMS7003;65692;51.378;19.824;2023-01-01T07:45:55;2.50;2.50;1.25
55304;PMS7003;65692;51.378;19.824;2023-01-01T07:48:22;5.75;5.75;4.50
55304;PMS7003;65692;51.378;19.824;2023-01-01T07:50:49;8.67;6.00;4.00
55304;PMS7003;65692;51.378;19.824;2023-01-01T07:53:16;10.50;8.00;6.25
55304;PMS7003;65692;51.378;19.824;2023-01-01T07:55:42;9.25;7.25;5.00
55304;PMS7003;65692;51.378;19.824;2023-01-01T07:58:11;10.75;8.00;6.75
55304;PMS7003;65692;51.378;19.824;2023-01-01T08:00:38;9.00;7.00;5.50
55304;PMS7003;65692;51.378;19.824;2023-01-01T08:03:04;7.25;6.50;4.50
55304;PMS7003;65692;51.378;19.824;2023-01-01T08:05:32;6.00;6.00;4.00
55304;PMS7003;65692;51.378;19.824;2023-01-01T08:08:01;9.50;8.25;6.50
55304;PMS7003;65692;51.378;19.824;2023-01-01T08:10:27;7.50;7.00;6.00
55304;PMS7003;65692;51.378;19.824;2023-01-01T08:13:00;8.50;6.75;6.00
55304;PMS7003;65692;51.378;19.824;2023-01-01T08:15:27;9.00;8.00;6.00
55304;PMS7003;65692;51.378;19.824;2023-01-01T08:17:57;8.75;8.00;6.00
55304;PMS7003;65692;51.378;19.824;2023-01-01T08:20:25;7.25;5.25;3.75
55304;PMS7003;65692;51.378;19.824;2023-01-01T08:22:51;8.00;6.50;5.00
55304;PMS7003;65692;51.378;19.824;2023-01-01T08:25:18;10.00;7.00;5.00
55304;PMS7003;65692;51.378;19.824;2023-01-01T08:27:44;5.75;5.75;5.00
55304;PMS7003;65692;51.378;19.824;2023-01-01T08:30:11;7.50;6.50;5.25
55304;PMS7003;65692;51.378;19.824;2023-01-01T08:32:38;4.75;4.25;3.75
55304;PMS7003;65692;51.378;19.824;2023-01-01T08:35:04;7.50;6.75;6.00
55304;PMS7003;65692;51.378;19.824;2023-01-01T08:37:31;6.75;6.50;5.50
55304;PMS7003;65692;51.378;19.824;2023-01-01T08:39:57;8.75;6.75;6.50
55304;PMS7003;65692;51.378;19.824;2023-01-01T08:42:24;8.25;7.00;5.75
55304;PMS7003;65692;51.378;19.824;2023-01-01T08:44:50;6.50;6.50;5.25
55304;PMS7003;65692;51.378;19.824;2023-01-01T08:47:21;7.50;6.00;5.25
55304;PMS7003;65692;51.378;19.824;2023-01-01T08:49:48;15.25;13.00;9.50
55304;PMS7003;65692;51.378;19.824;2023-01-01T08:52:15;14.00;12.00;9.00
55304;PMS7003;65692;51.378;19.824;2023-01-01T08:54:42;12.00;8.00;7.00
55304;PMS7003;65692;51.378;19.824;2023-01-01T08:57:09;9.25;6.75;6.25
55304;PMS7003;65692;51.378;19.824;2023-01-01T08:59:36;13.25;7.25;5.50
55304;PMS7003;65692;51.378;19.824;2023-01-01T09:02:02;7.25;5.25;4.00
55304;PMS7003;65692;51.378;19.824;2023-01-01T09:04:30;10.25;9.75;7.50
55304;PMS7003;65692;51.378;19.824;2023-01-01T09:06:56;7.75;6.00;5.75
55304;PMS7003;65692;51.378;19.824;2023-01-01T09:09:22;9.00;5.75;5.00
55304;PMS7003;65692;51.378;19.824;2023-01-01T09:11:56;8.75;7.25;6.00
55304;PMS7003;65692;51.378;19.824;2023-01-01T09:14:29;10.75;8.00;5.00
55304;PMS7003;65692;51.378;19.824;2023-01-01T09:16:56;9.25;7.50;6.00
55304;PMS7003;65692;51.378;19.824;2023-01-01T09:19:22;7.25;7.25;6.25
55304;PMS7003;65692;51.378;19.824;2023-01-01T09:21:49;6.25;5.75;4.75
55304;PMS7003;65692;51.378;19.824;2023-01-01T09:24:15;5.75;5.75;4.50
55304;PMS7003;65692;51.378;19.824;2023-01-01T09:26:42;9.00;7.25;6.00
55304;PMS7003;65692;51.378;19.824;2023-01-01T09:29:08;9.00;8.00;6.00
55304;PMS7003;65692;51.378;19.824;2023-01-01T09:31:35;7.75;6.50;4.50
55304;PMS7003;65692;51.378;19.824;2023-01-01T09:34:01;9.00;6.75;5.25
55304;PMS7003;65692;51.378;19.824;2023-01-01T09:36:29;6.50;5.50;4.25
55304;PMS7003;65692;51.378;19.824;2023-01-01T09:38:56;10.00;9.50;5.50
55304;PMS7003;65692;51.378;19.824;2023-01-01T09:46:31;10.25;8.50;6.00
55304;PMS7003;65692;51.378;19.824;2023-01-01T09:49:00;7.25;6.00;5.25
55304;PMS7003;65692;51.378;19.824;2023-01-01T09:51:30;9.00;9.00;7.25
55304;PMS7003;65692;51.378;19.824;2023-01-01T09:56:43;12.25;8.75;6.00
55304;PMS7003;65692;51.378;19.824;2023-01-01T09:59:11;9.75;8.75;7.00
55304;PMS7003;65692;51.378;19.824;2023-01-01T10:01:40;8.25;8.25;6.00
55304;PMS7003;65692;51.378;19.824;2023-01-01T10:07:00;11.25;9.25;6.50
55304;PMS7003;65692;51.378;19.824;2023-01-01T10:09:34;9.50;9.50;7.00
55304;PMS7003;65692;51.378;19.824;2023-01-01T10:12:21;11.75;6.50;5.25
55304;PMS7003;65692;51.378;19.824;2023-01-01T10:14:54;10.00;8.00;6.00
55304;PMS7003;65692;51.378;19.824;2023-01-01T10:18:01;5.50;4.00;4.00
55304;PMS7003;65692;51.378;19.824;2023-01-01T10:20:23;9.75;7.00;5.00
55304;PMS7003;65692;51.378;19.824;2023-01-01T10:22:53;10.50;9.25;8.00
55304;PMS7003;65692;51.378;19.824;2023-01-01T10:25:24;8.50;7.25;5.25
55304;PMS7003;65692;51.378;19.824;2023-01-01T10:27:53;10.25;8.25;6.00
55304;PMS7003;65692;51.378;19.824;2023-01-01T10:30:25;7.00;7.00;6.00
55304;PMS7003;65692;51.378;19.824;2023-01-01T10:32:52;6.25;6.25;6.00
55304;PMS7003;65692;51.378;19.824;2023-01-01T10:35:29;8.50;7.50;5.00
55304;PMS7003;65692;51.378;19.824;2023-01-01T10:37:59;10.50;7.25;6.00
55304;PMS7003;65692;51.378;19.824;2023-01-01T10:40:26;9.75;6.00;5.50
55304;PMS7003;65692;51.378;19.824;2023-01-01T10:42:55;7.50;6.50;5.50
55304;PMS7003;65692;51.378;19.824;2023-01-01T10:45:31;8.25;7.00;6.25
55304;PMS7003;65692;51.378;19.824;2023-01-01T10:48:07;8.25;6.25;6.00
55304;PMS7003;65692;51.378;19.824;2023-01-01T10:50:41;5.25;3.50;3.00
55304;PMS7003;65692;51.378;19.824;2023-01-01T10:53:17;8.50;6.00;5.00
55304;PMS7003;65692;51.378;19.824;2023-01-01T11:00:57;6.50;6.50;6.25
55304;PMS7003;65692;51.378;19.824;2023-01-01T11:03:25;10.50;6.25;5.00
55304;PMS7003;65692;51.378;19.824;2023-01-01T11:08:30;9.25;8.00;6.50
55304;PMS7003;65692;51.378;19.824;2023-01-01T11:10:58;7.50;7.00;6.25
55304;PMS7003;65692;51.378;19.824;2023-01-01T11:13:25;3.00;3.00;2.00
55304;PMS7003;65692;51.378;19.824;2023-01-01T11:15:53;7.25;6.50;5.00
55304;PMS7003;65692;51.378;19.824;2023-01-01T11:18:38;8.50;8.50;7.50
55304;PMS7003;65692;51.378;19.824;2023-01-01T11:21:04;8.00;8.00;7.00
55304;PMS7003;65692;51.378;19.824;2023-01-01T11:23:36;10.25;7.75;6.75
55304;PMS7003;65692;51.378;19.824;2023-01-01T11:28:39;7.00;7.00;5.50
55304;PMS7003;65692;51.378;19.824;2023-01-01T11:33:33;6.00;6.00;4.50
55304;PMS7003;65692;51.378;19.824;2023-01-01T11:36:01;8.75;8.75;7.00
55304;PMS7003;65692;51.378;19.824;2023-01-01T11:38:28;7.00;7.00;6.00
55304;PMS7003;65692;51.378;19.824;2023-01-01T11:40:59;6.25;6.25;5.75
55304;PMS7003;65692;51.378;19.824;2023-01-01T11:43:27;8.67;7.00;6.33
55304;PMS7003;65692;51.378;19.824;2023-01-01T11:45:56;12.25;9.75;8.00
55304;PMS7003;65692;51.378;19.824;2023-01-01T11:50:54;10.50;7.25;5.50
55304;PMS7003;65692;51.378;19.824;2023-01-01T11:55:56;8.00;8.00;6.00
55304;PMS7003;65692;51.378;19.824;2023-01-01T12:01:03;8.00;6.00;5.00
55304;PMS7003;65692;51.378;19.824;2023-01-01T12:03:32;6.75;6.75;5.50
55304;PMS7003;65692;51.378;19.824;2023-01-01T12:06:15;10.25;6.50;5.25
55304;PMS7003;65692;51.378;19.824;2023-01-01T12:11:48;14.75;9.75;8.00
55304;PMS7003;65692;51.378;19.824;2023-01-01T12:22:28;10.50;7.75;6.75
55304;PMS7003;65692;51.378;19.824;2023-01-01T12:24:54;8.50;5.75;3.00
55304;PMS7003;65692;51.378;19.824;2023-01-01T12:30:25;9.00;8.00;7.00
55304;PMS7003;65692;51.378;19.824;2023-01-01T12:40:41;9.50;7.75;6.00
55304;PMS7003;65692;51.378;19.824;2023-01-01T12:43:10;8.75;7.50;5.75
55304;PMS7003;65692;51.378;19.824;2023-01-01T12:45:53;12.00;7.25;6.25
55304;PMS7003;65692;51.378;19.824;2023-01-01T12:51:12;7.25;6.25;5.25
55304;PMS7003;65692;51.378;19.824;2023-01-01T12:56:18;8.25;7.75;5.75
55304;PMS7003;65692;51.378;19.824;2023-01-01T13:01:19;8.75;8.00;7.00
55304;PMS7003;65692;51.378;19.824;2023-01-01T13:06:14;10.25;9.00;6.75
55304;PMS7003;65692;51.378;19.824;2023-01-01T13:08:46;10.00;8.50;6.50
55304;PMS7003;65692;51.378;19.824;2023-01-01T13:11:15;8.75;7.75;5.00
55304;PMS7003;65692;51.378;19.824;2023-01-01T13:13:45;7.25;5.00;4.50
55304;PMS7003;65692;51.378;19.824;2023-01-01T13:16:17;12.00;7.00;5.75
55304;PMS7003;65692;51.378;19.824;2023-01-01T13:19:00;8.75;7.25;5.00
55304;PMS7003;65692;51.378;19.824;2023-01-01T13:21:28;7.75;7.75;6.00
55304;PMS7003;65692;51.378;19.824;2023-01-01T13:23:56;7.25;7.00;6.00
55304;PMS7003;65692;51.378;19.824;2023-01-01T13:26:32;9.75;7.00;5.25
55304;PMS7003;65692;51.378;19.824;2023-01-01T13:37:24;9.25;7.75;6.00
55304;PMS7003;65692;51.378;19.824;2023-01-01T13:50:47;8.00;8.00;6.50
55304;PMS7003;65692;51.378;19.824;2023-01-01T13:53:25;7.75;6.00;6.00
55304;PMS7003;65692;51.378;19.824;2023-01-01T13:56:02;5.00;5.00;4.00
55304;PMS7003;65692;51.378;19.824;2023-01-01T14:03:41;8.25;8.25;5.00
55304;PMS7003;65692;51.378;19.824;2023-01-01T14:06:11;8.00;7.75;5.00
55304;PMS7003;65692;51.378;19.824;2023-01-01T14:08:40;7.50;5.50;3.50
55304;PMS7003;65692;51.378;19.824;2023-01-01T14:11:20;12.50;10.00;7.00
55304;PMS7003;65692;51.378;19.824;2023-01-01T14:13:46;11.50;7.00;5.00
55304;PMS7003;65692;51.378;19.824;2023-01-01T14:16:13;10.25;8.50;8.00
55304;PMS7003;65692;51.378;19.824;2023-01-01T14:18:42;8.50;6.75;4.00
55304;PMS7003;65692;51.378;19.824;2023-01-01T14:21:10;8.75;8.25;7.50
55304;PMS7003;65692;51.378;19.824;2023-01-01T14:23:42;8.75;8.25;5.00
55304;PMS7003;65692;51.378;19.824;2023-01-01T14:26:10;8.75;6.25;6.00
55304;PMS7003;65692;51.378;19.824;2023-01-01T14:28:37;9.00;9.00;5.25
55304;PMS7003;65692;51.378;19.824;2023-01-01T14:31:08;5.50;5.00;4.25
55304;PMS7003;65692;51.378;19.824;2023-01-01T14:33:36;11.50;8.50;7.00
55304;PMS7003;65692;51.378;19.824;2023-01-01T14:36:04;8.75;8.75;5.75
55304;PMS7003;65692;51.378;19.824;2023-01-01T14:38:31;15.00;11.75;9.00
55304;PMS7003;65692;51.378;19.824;2023-01-01T14:43:37;10.00;8.25;6.25
55304;PMS7003;65692;51.378;19.824;2023-01-01T14:46:05;10.75;9.75;7.50
55304;PMS7003;65692;51.378;19.824;2023-01-01T14:48:36;11.25;10.75;8.00
55304;PMS7003;65692;51.378;19.824;2023-01-01T14:51:03;12.25;10.50;8.25
55304;PMS7003;65692;51.378;19.824;2023-01-01T14:53:29;10.75;9.00;6.75
55304;PMS7003;65692;51.378;19.824;2023-01-01T14:55:57;13.75;11.00;9.25
55304;PMS7003;65692;51.378;19.824;2023-01-01T14:58:24;13.25;12.25;8.75
55304;PMS7003;65692;51.378;19.824;2023-01-01T15:00:52;15.00;13.00;10.25
55304;PMS7003;65692;51.378;19.824;2023-01-01T15:03:20;18.50;14.75;12.00
55304;PMS7003;65692;51.378;19.824;2023-01-01T15:06:01;20.50;17.00;12.50
55304;PMS7003;65692;51.378;19.824;2023-01-01T15:08:28;15.75;13.75;10.50
55304;PMS7003;65692;51.378;19.824;2023-01-01T15:10:54;19.50;11.50;9.50
55304;PMS7003;65692;51.378;19.824;2023-01-01T15:13:23;21.00;15.25;11.75
55304;PMS7003;65692;51.378;19.824;2023-01-01T15:15:54;14.75;12.75;9.75
55304;PMS7003;65692;51.378;19.824;2023-01-01T15:20:59;20.25;15.25;11.25
55304;PMS7003;65692;51.378;19.824;2023-01-01T15:23:26;14.75;10.25;8.00
55304;PMS7003;65692;51.378;19.824;2023-01-01T15:25:52;11.75;11.00;8.75
55304;PMS7003;65692;51.378;19.824;2023-01-01T15:28:20;12.50;9.50;7.00
55304;PMS7003;65692;51.378;19.824;2023-01-01T15:30:53;13.75;11.00;9.00
55304;PMS7003;65692;51.378;19.824;2023-01-01T15:33:20;16.50;12.25;9.00
55304;PMS7003;65692;51.378;19.824;2023-01-01T15:35:50;27.00;22.25;16.25
55304;PMS7003;65692;51.378;19.824;2023-01-01T15:38:24;24.00;18.00;11.50
55304;PMS7003;65692;51.378;19.824;2023-01-01T15:40:51;17.75;16.00;12.00
55304;PMS7003;65692;51.378;19.824;2023-01-01T15:43:22;16.75;12.75;10.75
55304;PMS7003;65692;51.378;19.824;2023-01-01T15:45:51;39.75;30.25;18.25
55304;PMS7003;65692;51.378;19.824;2023-01-01T15:50:59;32.75;25.00;18.25
55304;PMS7003;65692;51.378;19.824;2023-01-01T15:53:27;30.75;24.75;16.00
55304;PMS7003;65692;51.378;19.824;2023-01-01T15:55:54;15.00;13.33;12.00
55304;PMS7003;65692;51.378;19.824;2023-01-01T15:58:24;30.75;25.25;17.75
55304;PMS7003;65692;51.378;19.824;2023-01-01T16:00:56;17.00;12.75;8.00
55304;PMS7003;65692;51.378;19.824;2023-01-01T16:03:23;23.50;19.50;14.00
55304;PMS7003;65692;51.378;19.824;2023-01-01T16:05:52;21.25;18.25;12.00
55304;PMS7003;65692;51.378;19.824;2023-01-01T16:08:19;19.00;16.50;13.00
55304;PMS7003;65692;51.378;19.824;2023-01-01T16:10:48;18.50;16.25;12.25